sensor_id;sensor_type;location;lat;lon;timestamp;P1;durP1;ratioP1;P2;durP2;ratioP2
26908;SDS011;14477;51.038;4.588;2022-07-29T00:02:01;1.10;;;0.80;;
26908;SDS011;14477;51.038;4.588;2022-07-29T00:04:27;1.50;;;0.77;;
26908;SDS011;14477;51.038;4.588;2022-07-29T00:06:52;1.47;;;0.97;;
26908;SDS011;14477;51.038;4.588;2022-07-29T00:09:18;1.83;;;0.80;;
26908;SDS011;14477;51.038;4.588;2022-07-29T00:11:44;1.40;;;0.83;;
26908;SDS011;14477;51.038;4.588;2022-07-29T00:14:10;1.65;;;0.93;;
26908;SDS011;14477;51.038;4.588;2022-07-29T00:16:35;1.80;;;0.97;;
26908;SDS011;14477;51.038;4.588;2022-07-29T00:19:01;2.03;;;1.17;;
26908;SDS011;14477;51.038;4.588;2022-07-29T00:21:27;1.65;;;0.80;;
26908;SDS011;14477;51.038;4.588;2022-07-29T00:23:53;1.30;;;0.87;;
26908;SDS011;14477;51.038;4.588;2022-07-29T00:26:18;1.20;;;0.90;;
26908;SDS011;14477;51.038;4.588;2022-07-29T00:28:44;1.90;;;0.90;;
26908;SDS011;14477;51.038;4.588;2022-07-29T00:31:10;2.03;;;0.90;;
26908;SDS011;14477;51.038;4.588;2022-07-29T00:33:36;1.47;;;1.10;;
26908;SDS011;14477;51.038;4.588;2022-07-29T00:36:02;2.08;;;0.80;;
26908;SDS011;14477;51.038;4.588;2022-07-29T00:38:28;1.40;;;0.90;;
26908;SDS011;14477;51.038;4.588;2022-07-29T00:40:54;2.30;;;0.80;;
26908;SDS011;14477;51.038;4.588;2022-07-29T00:43:20;1.83;;;0.88;;
26908;SDS011;14477;51.038;4.588;2022-07-29T00:45:45;1.70;;;0.82;;
26908;SDS011;14477;51.038;4.588;2022-07-29T00:48:11;1.43;;;1.00;;
26908;SDS011;14477;51.038;4.588;2022-07-29T00:50:37;1.08;;;0.73;;
26908;SDS011;14477;51.038;4.588;2022-07-29T00:53:03;1.65;;;0.90;;
26908;SDS011;14477;51.038;4.588;2022-07-29T00:55:31;2.03;;;0.90;;
26908;SDS011;14477;51.038;4.588;2022-07-29T00:57:57;1.73;;;0.90;;
26908;SDS011;14477;51.038;4.588;2022-07-29T01:00:24;0.82;;;0.80;;
26908;SDS011;14477;51.038;4.588;2022-07-29T01:02:52;1.15;;;0.90;;
26908;SDS011;14477;51.038;4.588;2022-07-29T01:05:19;2.10;;;0.90;;
26908;SDS011;14477;51.038;4.588;2022-07-29T01:07:46;2.65;;;1.00;;
26908;SDS011;14477;51.038;4.588;2022-07-29T01:10:14;1.30;;;0.80;;
26908;SDS011;14477;51.038;4.588;2022-07-29T01:12:41;2.13;;;0.90;;
26908;SDS011;14477;51.038;4.588;2022-07-29T01:15:09;0.75;;;0.75;;
26908;SDS011;14477;51.038;4.588;2022-07-29T01:17:36;1.33;;;0.80;;
26908;SDS011;14477;51.038;4.588;2022-07-29T01:20:24;1.00;;;0.75;;
26908;SDS011;14477;51.038;4.588;2022-07-29T01:26:04;1.73;;;0.80;;
26908;SDS011;14477;51.038;4.588;2022-07-29T01:28:52;1.00;;;0.80;;
26908;SDS011;14477;51.038;4.588;2022-07-29T01:31:48;1.93;;;0.80;;
26908;SDS011;14477;51.038;4.588;2022-07-29T01:34:48;3.90;;;0.88;;
26908;SDS011;14477;51.038;4.588;2022-07-29T01:37:32;1.55;;;0.75;;
26908;SDS011;14477;51.038;4.588;2022-07-29T01:40:09;1.98;;;0.80;;
26908;SDS011;14477;51.038;4.588;2022-07-29T01:42:43;1.65;;;0.93;;
26908;SDS011;14477;51.038;4.588;2022-07-29T01:45:18;1.67;;;0.93;;
26908;SDS011;14477;51.038;4.588;2022-07-29T01:50:44;2.50;;;1.00;;
26908;SDS011;14477;51.038;4.588;2022-07-29T01:53:14;0.80;;;0.80;;
26908;SDS011;14477;51.038;4.588;2022-07-29T01:55:46;1.95;;;0.82;;
26908;SDS011;14477;51.038;4.588;2022-07-29T01:58:14;0.93;;;0.73;;
26908;SDS011;14477;51.038;4.588;2022-07-29T02:00:44;1.55;;;0.90;;
26908;SDS011;14477;51.038;4.588;2022-07-29T02:03:11;1.70;;;0.90;;
26908;SDS011;14477;51.038;4.588;2022-07-29T02:05:39;1.77;;;0.88;;
26908;SDS011;14477;51.038;4.588;2022-07-29T02:08:07;1.77;;;0.90;;
26908;SDS011;14477;51.038;4.588;2022-07-29T02:10:35;1.00;;;0.80;;
26908;SDS011;14477;51.038;4.588;2022-07-29T02:13:02;1.42;;;0.90;;
26908;SDS011;14477;51.038;4.588;2022-07-29T02:15:30;1.42;;;0.80;;
26908;SDS011;14477;51.038;4.588;2022-07-29T02:18:14;1.70;;;0.90;;
26908;SDS011;14477;51.038;4.588;2022-07-29T02:20:44;1.77;;;1.00;;
26908;SDS011;14477;51.038;4.588;2022-07-29T02:23:12;1.93;;;0.90;;
26908;SDS011;14477;51.038;4.588;2022-07-29T02:25:42;1.20;;;0.80;;
26908;SDS011;14477;51.038;4.588;2022-07-29T02:28:09;1.65;;;0.88;;
26908;SDS011;14477;51.038;4.588;2022-07-29T02:30:36;1.98;;;0.90;;
26908;SDS011;14477;51.038;4.588;2022-07-29T02:33:05;2.17;;;0.90;;
26908;SDS011;14477;51.038;4.588;2022-07-29T02:35:33;1.27;;;0.90;;
26908;SDS011;14477;51.038;4.588;2022-07-29T02:37:59;2.10;;;0.90;;
26908;SDS011;14477;51.038;4.588;2022-07-29T02:40:45;1.95;;;1.00;;
26908;SDS011;14477;51.038;4.588;2022-07-29T02:43:13;2.00;;;0.95;;
26908;SDS011;14477;51.038;4.588;2022-07-29T02:45:40;1.97;;;1.00;;
26908;SDS011;14477;51.038;4.588;2022-07-29T02:48:09;2.00;;;0.80;;
26908;SDS011;14477;51.038;4.588;2022-07-29T02:50:38;1.42;;;0.90;;
26908;SDS011;14477;51.038;4.588;2022-07-29T02:53:14;0.90;;;0.80;;
26908;SDS011;14477;51.038;4.588;2022-07-29T02:55:44;2.17;;;1.00;;
26908;SDS011;14477;51.038;4.588;2022-07-29T02:58:39;1.50;;;0.83;;
26908;SDS011;14477;51.038;4.588;2022-07-29T03:01:08;1.08;;;0.90;;
26908;SDS011;14477;51.038;4.588;2022-07-29T03:03:39;1.63;;;1.00;;
26908;SDS011;14477;51.038;4.588;2022-07-29T03:06:07;1.10;;;0.90;;
26908;SDS011;14477;51.038;4.588;2022-07-29T03:08:34;2.10;;;1.10;;
26908;SDS011;14477;51.038;4.588;2022-07-29T03:11:00;1.83;;;1.00;;
26908;SDS011;14477;51.038;4.588;2022-07-29T03:13:27;1.20;;;1.00;;
26908;SDS011;14477;51.038;4.588;2022-07-29T03:15:55;1.58;;;1.10;;
26908;SDS011;14477;51.038;4.588;2022-07-29T03:18:22;1.92;;;1.10;;
26908;SDS011;14477;51.038;4.588;2022-07-29T03:20:49;2.30;;;1.08;;
26908;SDS011;14477;51.038;4.588;2022-07-29T03:23:18;1.80;;;1.07;;
26908;SDS011;14477;51.038;4.588;2022-07-29T03:25:45;1.42;;;0.98;;
26908;SDS011;14477;51.038;4.588;2022-07-29T03:28:11;1.38;;;1.10;;
26908;SDS011;14477;51.038;4.588;2022-07-29T03:30:36;1.27;;;1.00;;
26908;SDS011;14477;51.038;4.588;2022-07-29T03:33:02;0.95;;;0.80;;
26908;SDS011;14477;51.038;4.588;2022-07-29T03:35:28;1.43;;;1.10;;
26908;SDS011;14477;51.038;4.588;2022-07-29T03:37:56;1.48;;;0.85;;
26908;SDS011;14477;51.038;4.588;2022-07-29T03:40:25;1.05;;;0.90;;
26908;SDS011;14477;51.038;4.588;2022-07-29T03:42:55;1.70;;;1.10;;
26908;SDS011;14477;51.038;4.588;2022-07-29T03:45:21;1.27;;;0.90;;
26908;SDS011;14477;51.038;4.588;2022-07-29T03:47:50;1.98;;;1.00;;
26908;SDS011;14477;51.038;4.588;2022-07-29T03:50:20;1.30;;;1.00;;
26908;SDS011;14477;51.038;4.588;2022-07-29T03:52:46;1.73;;;1.00;;
26908;SDS011;14477;51.038;4.588;2022-07-29T03:55:13;2.08;;;1.10;;
26908;SDS011;14477;51.038;4.588;2022-07-29T03:57:40;1.93;;;1.10;;
26908;SDS011;14477;51.038;4.588;2022-07-29T04:00:06;1.52;;;1.00;;
26908;SDS011;14477;51.038;4.588;2022-07-29T04:02:33;4.07;;;1.20;;
26908;SDS011;14477;51.038;4.588;2022-07-29T04:05:00;1.40;;;1.10;;
26908;SDS011;14477;51.038;4.588;2022-07-29T04:07:26;2.00;;;1.00;;
26908;SDS011;14477;51.038;4.588;2022-07-29T04:09:52;1.70;;;1.17;;
26908;SDS011;14477;51.038;4.588;2022-07-29T04:12:18;2.10;;;1.23;;
26908;SDS011;14477;51.038;4.588;2022-07-29T04:14:44;1.57;;;1.30;;
26908;SDS011;14477;51.038;4.588;2022-07-29T04:17:09;1.58;;;1.10;;
26908;SDS011;14477;51.038;4.588;2022-07-29T04:19:35;1.53;;;1.20;;
26908;SDS011;14477;51.038;4.588;2022-07-29T04:22:01;2.22;;;1.25;;
26908;SDS011;14477;51.038;4.588;2022-07-29T04:24:27;1.63;;;1.10;;
26908;SDS011;14477;51.038;4.588;2022-07-29T04:26:53;3.75;;;1.08;;
26908;SDS011;14477;51.038;4.588;2022-07-29T04:29:19;2.07;;;0.93;;
26908;SDS011;14477;51.038;4.588;2022-07-29T04:31:45;1.55;;;1.13;;
26908;SDS011;14477;51.038;4.588;2022-07-29T04:34:11;2.05;;;1.05;;
26908;SDS011;14477;51.038;4.588;2022-07-29T04:36:37;1.48;;;1.10;;
26908;SDS011;14477;51.038;4.588;2022-07-29T04:39:03;1.67;;;1.10;;
26908;SDS011;14477;51.038;4.588;2022-07-29T04:41:29;1.65;;;1.00;;
26908;SDS011;14477;51.038;4.588;2022-07-29T04:43:55;1.63;;;1.10;;
26908;SDS011;14477;51.038;4.588;2022-07-29T04:46:21;2.63;;;1.20;;
26908;SDS011;14477;51.038;4.588;2022-07-29T04:48:47;2.28;;;1.08;;
26908;SDS011;14477;51.038;4.588;2022-07-29T04:51:13;2.70;;;1.37;;
26908;SDS011;14477;51.038;4.588;2022-07-29T04:53:39;2.47;;;1.20;;
26908;SDS011;14477;51.038;4.588;2022-07-29T04:56:05;2.58;;;1.30;;
26908;SDS011;14477;51.038;4.588;2022-07-29T04:58:31;2.67;;;1.20;;
26908;SDS011;14477;51.038;4.588;2022-07-29T05:00:59;3.75;;;1.33;;
26908;SDS011;14477;51.038;4.588;2022-07-29T05:03:25;2.37;;;1.23;;
26908;SDS011;14477;51.038;4.588;2022-07-29T05:05:50;3.95;;;1.10;;
26908;SDS011;14477;51.038;4.588;2022-07-29T05:08:16;2.50;;;1.20;;
26908;SDS011;14477;51.038;4.588;2022-07-29T05:10:42;1.85;;;1.20;;
26908;SDS011;14477;51.038;4.588;2022-07-29T05:13:08;2.70;;;1.40;;
26908;SDS011;14477;51.038;4.588;2022-07-29T05:15:34;2.30;;;1.30;;
26908;SDS011;14477;51.038;4.588;2022-07-29T05:18:00;1.75;;;1.25;;
26908;SDS011;14477;51.038;4.588;2022-07-29T05:20:26;3.60;;;1.40;;
26908;SDS011;14477;51.038;4.588;2022-07-29T05:22:54;2.75;;;1.23;;
26908;SDS011;14477;51.038;4.588;2022-07-29T05:25:21;2.75;;;1.20;;
26908;SDS011;14477;51.038;4.588;2022-07-29T05:27:47;2.28;;;1.30;;
26908;SDS011;14477;51.038;4.588;2022-07-29T05:30:12;1.50;;;1.20;;
26908;SDS011;14477;51.038;4.588;2022-07-29T05:32:38;1.95;;;1.40;;
26908;SDS011;14477;51.038;4.588;2022-07-29T05:35:04;1.55;;;1.30;;
26908;SDS011;14477;51.038;4.588;2022-07-29T05:37:30;3.03;;;1.40;;
26908;SDS011;14477;51.038;4.588;2022-07-29T05:39:59;3.85;;;1.40;;
26908;SDS011;14477;51.038;4.588;2022-07-29T05:42:26;2.10;;;1.27;;
26908;SDS011;14477;51.038;4.588;2022-07-29T05:44:52;1.70;;;1.20;;
26908;SDS011;14477;51.038;4.588;2022-07-29T05:47:18;1.85;;;1.23;;
26908;SDS011;14477;51.038;4.588;2022-07-29T05:49:44;2.47;;;1.30;;
26908;SDS011;14477;51.038;4.588;2022-07-29T05:52:11;2.55;;;1.40;;
26908;SDS011;14477;51.038;4.588;2022-07-29T05:54:38;1.98;;;1.40;;
26908;SDS011;14477;51.038;4.588;2022-07-29T05:57:04;1.97;;;1.27;;
26908;SDS011;14477;51.038;4.588;2022-07-29T05:59:30;3.35;;;1.23;;
26908;SDS011;14477;51.038;4.588;2022-07-29T06:02:00;3.72;;;1.30;;
26908;SDS011;14477;51.038;4.588;2022-07-29T06:04:26;1.63;;;1.40;;
26908;SDS011;14477;51.038;4.588;2022-07-29T06:06:51;2.20;;;1.27;;
26908;SDS011;14477;51.038;4.588;2022-07-29T06:09:17;1.52;;;1.30;;
26908;SDS011;14477;51.038;4.588;2022-07-29T06:11:43;3.43;;;1.53;;
26908;SDS011;14477;51.038;4.588;2022-07-29T06:14:08;2.33;;;1.30;;
26908;SDS011;14477;51.038;4.588;2022-07-29T06:16:34;3.33;;;1.50;;
26908;SDS011;14477;51.038;4.588;2022-07-29T06:19:00;2.15;;;1.30;;
26908;SDS011;14477;51.038;4.588;2022-07-29T06:21:25;2.43;;;1.50;;
26908;SDS011;14477;51.038;4.588;2022-07-29T06:23:51;2.95;;;1.40;;
26908;SDS011;14477;51.038;4.588;2022-07-29T06:26:17;2.00;;;1.30;;
26908;SDS011;14477;51.038;4.588;2022-07-29T06:28:42;1.95;;;1.33;;
26908;SDS011;14477;51.038;4.588;2022-07-29T06:31:08;2.10;;;1.33;;
26908;SDS011;14477;51.038;4.588;2022-07-29T06:33:34;1.88;;;1.50;;
26908;SDS011;14477;51.038;4.588;2022-07-29T06:36:00;2.60;;;1.33;;
26908;SDS011;14477;51.038;4.588;2022-07-29T06:38:28;2.22;;;1.48;;
26908;SDS011;14477;51.038;4.588;2022-07-29T06:40:53;2.03;;;1.30;;
26908;SDS011;14477;51.038;4.588;2022-07-29T06:43:37;2.60;;;1.40;;
26908;SDS011;14477;51.038;4.588;2022-07-29T06:46:07;1.80;;;1.27;;
26908;SDS011;14477;51.038;4.588;2022-07-29T06:48:35;3.50;;;1.48;;
26908;SDS011;14477;51.038;4.588;2022-07-29T06:51:01;1.90;;;1.27;;
26908;SDS011;14477;51.038;4.588;2022-07-29T06:53:28;2.55;;;1.60;;
26908;SDS011;14477;51.038;4.588;2022-07-29T06:55:55;2.40;;;1.50;;
26908;SDS011;14477;51.038;4.588;2022-07-29T06:58:21;2.40;;;1.45;;
26908;SDS011;14477;51.038;4.588;2022-07-29T07:00:47;2.97;;;1.50;;
26908;SDS011;14477;51.038;4.588;2022-07-29T07:03:13;2.97;;;1.40;;
26908;SDS011;14477;51.038;4.588;2022-07-29T07:05:40;2.95;;;1.50;;
26908;SDS011;14477;51.038;4.588;2022-07-29T07:08:06;2.78;;;1.30;;
26908;SDS011;14477;51.038;4.588;2022-07-29T07:10:33;2.03;;;1.40;;
26908;SDS011;14477;51.038;4.588;2022-07-29T07:12:59;1.92;;;1.27;;
26908;SDS011;14477;51.038;4.588;2022-07-29T07:15:25;2.30;;;1.38;;
26908;SDS011;14477;51.038;4.588;2022-07-29T07:17:52;1.90;;;1.33;;
26908;SDS011;14477;51.038;4.588;2022-07-29T07:20:17;2.30;;;1.30;;
26908;SDS011;14477;51.038;4.588;2022-07-29T07:22:43;2.10;;;1.23;;
26908;SDS011;14477;51.038;4.588;2022-07-29T07:25:09;1.73;;;1.35;;
26908;SDS011;14477;51.038;4.588;2022-07-29T07:27:36;2.60;;;1.58;;
26908;SDS011;14477;51.038;4.588;2022-07-29T07:30:05;3.03;;;1.50;;
26908;SDS011;14477;51.038;4.588;2022-07-29T07:32:35;2.30;;;1.40;;
26908;SDS011;14477;51.038;4.588;2022-07-29T07:35:02;2.45;;;1.40;;
26908;SDS011;14477;51.038;4.588;2022-07-29T07:37:31;4.65;;;1.58;;
26908;SDS011;14477;51.038;4.588;2022-07-29T07:39:57;3.03;;;1.40;;
26908;SDS011;14477;51.038;4.588;2022-07-29T07:42:23;2.72;;;1.65;;
26908;SDS011;14477;51.038;4.588;2022-07-29T07:44:49;1.33;;;1.23;;
26908;SDS011;14477;51.038;4.588;2022-07-29T07:47:15;1.57;;;1.27;;
26908;SDS011;14477;51.038;4.588;2022-07-29T07:49:48;3.78;;;1.52;;
26908;SDS011;14477;51.038;4.588;2022-07-29T07:52:17;1.80;;;1.50;;
26908;SDS011;14477;51.038;4.588;2022-07-29T07:54:44;3.63;;;1.48;;
26908;SDS011;14477;51.038;4.588;2022-07-29T07:57:11;2.63;;;1.60;;
26908;SDS011;14477;51.038;4.588;2022-07-29T07:59:37;2.40;;;1.58;;
26908;SDS011;14477;51.038;4.588;2022-07-29T08:02:04;1.52;;;1.40;;
26908;SDS011;14477;51.038;4.588;2022-07-29T08:04:30;2.22;;;1.38;;
26908;SDS011;14477;51.038;4.588;2022-07-29T08:06:56;2.03;;;1.30;;
26908;SDS011;14477;51.038;4.588;2022-07-29T08:09:24;2.55;;;1.60;;
26908;SDS011;14477;51.038;4.588;2022-07-29T08:11:50;1.85;;;1.40;;
26908;SDS011;14477;51.038;4.588;2022-07-29T08:14:16;2.40;;;1.20;;
26908;SDS011;14477;51.038;4.588;2022-07-29T08:16:42;1.67;;;1.30;;
26908;SDS011;14477;51.038;4.588;2022-07-29T08:19:08;2.67;;;1.50;;
26908;SDS011;14477;51.038;4.588;2022-07-29T08:21:34;1.52;;;1.38;;
26908;SDS011;14477;51.038;4.588;2022-07-29T08:24:00;2.30;;;1.40;;
26908;SDS011;14477;51.038;4.588;2022-07-29T08:26:45;2.00;;;1.33;;
26908;SDS011;14477;51.038;4.588;2022-07-29T08:29:11;1.90;;;1.35;;
26908;SDS011;14477;51.038;4.588;2022-07-29T08:31:37;2.08;;;1.30;;
26908;SDS011;14477;51.038;4.588;2022-07-29T08:34:04;1.90;;;1.20;;
26908;SDS011;14477;51.038;4.588;2022-07-29T08:36:30;2.97;;;1.20;;
26908;SDS011;14477;51.038;4.588;2022-07-29T08:38:56;2.47;;;1.30;;
26908;SDS011;14477;51.038;4.588;2022-07-29T08:41:22;2.67;;;1.40;;
26908;SDS011;14477;51.038;4.588;2022-07-29T08:43:48;2.60;;;1.40;;
26908;SDS011;14477;51.038;4.588;2022-07-29T08:46:15;2.90;;;1.60;;
26908;SDS011;14477;51.038;4.588;2022-07-29T08:48:42;2.65;;;1.50;;
26908;SDS011;14477;51.038;4.588;2022-07-29T08:51:08;2.28;;;1.50;;
26908;SDS011;14477;51.038;4.588;2022-07-29T08:53:40;1.80;;;1.40;;
26908;SDS011;14477;51.038;4.588;2022-07-29T08:56:10;2.60;;;1.38;;
26908;SDS011;14477;51.038;4.588;2022-07-29T08:58:39;2.00;;;1.80;;
26908;SDS011;14477;51.038;4.588;2022-07-29T09:01:06;1.80;;;1.40;;
26908;SDS011;14477;51.038;4.588;2022-07-29T09:03:34;2.00;;;1.67;;
26908;SDS011;14477;51.038;4.588;2022-07-29T09:06:03;2.13;;;1.92;;
26908;SDS011;14477;51.038;4.588;2022-07-29T09:08:30;2.53;;;1.30;;
26908;SDS011;14477;51.038;4.588;2022-07-29T09:10:56;1.80;;;1.47;;
26908;SDS011;14477;51.038;4.588;2022-07-29T09:13:23;1.92;;;1.50;;
26908;SDS011;14477;51.038;4.588;2022-07-29T09:15:49;1.60;;;1.50;;
26908;SDS011;14477;51.038;4.588;2022-07-29T09:21:01;2.13;;;1.40;;
26908;SDS011;14477;51.038;4.588;2022-07-29T09:26:35;1.98;;;1.63;;
26908;SDS011;14477;51.038;4.588;2022-07-29T09:29:13;2.10;;;1.70;;
26908;SDS011;14477;51.038;4.588;2022-07-29T09:31:44;1.70;;;1.50;;
26908;SDS011;14477;51.038;4.588;2022-07-29T09:34:14;1.90;;;1.67;;
26908;SDS011;14477;51.038;4.588;2022-07-29T09:36:44;1.80;;;1.55;;
26908;SDS011;14477;51.038;4.588;2022-07-29T09:39:12;2.17;;;1.83;;
26908;SDS011;14477;51.038;4.588;2022-07-29T09:41:49;2.72;;;1.63;;
26908;SDS011;14477;51.038;4.588;2022-07-29T09:44:20;3.08;;;2.00;;
26908;SDS011;14477;51.038;4.588;2022-07-29T09:46:57;1.77;;;1.47;;
26908;SDS011;14477;51.038;4.588;2022-07-29T09:49:31;1.85;;;1.75;;
26908;SDS011;14477;51.038;4.588;2022-07-29T09:52:03;1.52;;;1.42;;
26908;SDS011;14477;51.038;4.588;2022-07-29T09:54:32;1.98;;;1.77;;
26908;SDS011;14477;51.038;4.588;2022-07-29T09:57:02;3.22;;;1.80;;
26908;SDS011;14477;51.038;4.588;2022-07-29T09:59:32;2.10;;;1.90;;
26908;SDS011;14477;51.038;4.588;2022-07-29T10:01:58;1.73;;;1.63;;
26908;SDS011;14477;51.038;4.588;2022-07-29T10:04:36;1.92;;;1.55;;
26908;SDS011;14477;51.038;4.588;2022-07-29T10:07:06;1.88;;;1.67;;
26908;SDS011;14477;51.038;4.588;2022-07-29T10:09:32;2.35;;;2.10;;
26908;SDS011;14477;51.038;4.588;2022-07-29T10:12:11;2.23;;;2.03;;
26908;SDS011;14477;51.038;4.588;2022-07-29T10:14:40;2.53;;;2.20;;
26908;SDS011;14477;51.038;4.588;2022-07-29T10:17:06;1.85;;;1.67;;
26908;SDS011;14477;51.038;4.588;2022-07-29T10:19:33;1.92;;;1.80;;
26908;SDS011;14477;51.038;4.588;2022-07-29T10:22:01;2.03;;;1.88;;
26908;SDS011;14477;51.038;4.588;2022-07-29T10:24:32;3.10;;;2.10;;
26908;SDS011;14477;51.038;4.588;2022-07-29T10:26:59;2.08;;;1.90;;
26908;SDS011;14477;51.038;4.588;2022-07-29T10:29:27;2.42;;;1.73;;
26908;SDS011;14477;51.038;4.588;2022-07-29T10:40:31;2.88;;;2.20;;
26908;SDS011;14477;51.038;4.588;2022-07-29T10:43:47;1.92;;;1.83;;
26908;SDS011;14477;51.038;4.588;2022-07-29T10:46:15;1.70;;;1.60;;
26908;SDS011;14477;51.038;4.588;2022-07-29T10:59:49;2.25;;;2.05;;
26908;SDS011;14477;51.038;4.588;2022-07-29T11:05:07;2.33;;;1.70;;
26908;SDS011;14477;51.038;4.588;2022-07-29T11:07:38;2.80;;;1.92;;
26908;SDS011;14477;51.038;4.588;2022-07-29T11:10:24;1.98;;;1.80;;
26908;SDS011;14477;51.038;4.588;2022-07-29T11:12:50;1.97;;;1.80;;
26908;SDS011;14477;51.038;4.588;2022-07-29T11:15:17;2.37;;;1.80;;
26908;SDS011;14477;51.038;4.588;2022-07-29T11:20:41;2.40;;;1.52;;
26908;SDS011;14477;51.038;4.588;2022-07-29T11:25:44;1.98;;;1.80;;
26908;SDS011;14477;51.038;4.588;2022-07-29T11:28:16;1.80;;;1.70;;
26908;SDS011;14477;51.038;4.588;2022-07-29T11:30:49;2.67;;;1.90;;
26908;SDS011;14477;51.038;4.588;2022-07-29T11:33:29;2.53;;;2.10;;
26908;SDS011;14477;51.038;4.588;2022-07-29T11:38:35;1.95;;;1.75;;
26908;SDS011;14477;51.038;4.588;2022-07-29T11:43:58;1.75;;;1.60;;
26908;SDS011;14477;51.038;4.588;2022-07-29T11:49:20;2.75;;;1.75;;
26908;SDS011;14477;51.038;4.588;2022-07-29T11:51:51;2.15;;;1.95;;
26908;SDS011;14477;51.038;4.588;2022-07-29T11:54:21;2.50;;;2.30;;
26908;SDS011;14477;51.038;4.588;2022-07-29T11:56:51;3.58;;;2.17;;
26908;SDS011;14477;51.038;4.588;2022-07-29T11:59:17;2.40;;;2.20;;
26908;SDS011;14477;51.038;4.588;2022-07-29T12:01:54;1.85;;;1.75;;
26908;SDS011;14477;51.038;4.588;2022-07-29T12:04:21;2.38;;;2.17;;
26908;SDS011;14477;51.038;4.588;2022-07-29T12:06:57;2.50;;;2.10;;
26908;SDS011;14477;51.038;4.588;2022-07-29T12:09:23;2.78;;;1.85;;
26908;SDS011;14477;51.038;4.588;2022-07-29T12:11:49;2.17;;;1.98;;
26908;SDS011;14477;51.038;4.588;2022-07-29T12:16:54;2.20;;;2.00;;
26908;SDS011;14477;51.038;4.588;2022-07-29T12:19:20;3.38;;;2.33;;
26908;SDS011;14477;51.038;4.588;2022-07-29T12:24:16;2.70;;;2.10;;
26908;SDS011;14477;51.038;4.588;2022-07-29T12:29:17;2.38;;;2.10;;
26908;SDS011;14477;51.038;4.588;2022-07-29T12:31:44;2.50;;;2.30;;
26908;SDS011;14477;51.038;4.588;2022-07-29T12:34:15;2.87;;;2.00;;
26908;SDS011;14477;51.038;4.588;2022-07-29T12:36:41;2.50;;;2.30;;
26908;SDS011;14477;51.038;4.588;2022-07-29T12:39:08;2.38;;;2.05;;
26908;SDS011;14477;51.038;4.588;2022-07-29T12:41:35;1.90;;;1.77;;
26908;SDS011;14477;51.038;4.588;2022-07-29T12:44:01;2.75;;;1.70;;
26908;SDS011;14477;51.038;4.588;2022-07-29T12:46:27;2.17;;;1.87;;
26908;SDS011;14477;51.038;4.588;2022-07-29T12:48:53;4.43;;;1.60;;
26908;SDS011;14477;51.038;4.588;2022-07-29T12:54:12;2.03;;;1.50;;
26908;SDS011;14477;51.038;4.588;2022-07-29T12:56:42;1.80;;;1.57;;
26908;SDS011;14477;51.038;4.588;2022-07-29T12:59:14;2.05;;;1.67;;
26908;SDS011;14477;51.038;4.588;2022-07-29T13:01:40;1.88;;;1.40;;
26908;SDS011;14477;51.038;4.588;2022-07-29T13:04:06;2.20;;;1.50;;
26908;SDS011;14477;51.038;4.588;2022-07-29T13:06:34;2.13;;;1.50;;
26908;SDS011;14477;51.038;4.588;2022-07-29T13:14:02;1.65;;;1.50;;
26908;SDS011;14477;51.038;4.588;2022-07-29T13:16:28;1.83;;;1.30;;
26908;SDS011;14477;51.038;4.588;2022-07-29T13:19:10;1.50;;;1.30;;
26908;SDS011;14477;51.038;4.588;2022-07-29T13:21:37;1.98;;;1.40;;
26908;SDS011;14477;51.038;4.588;2022-07-29T13:24:07;1.50;;;1.40;;
26908;SDS011;14477;51.038;4.588;2022-07-29T13:26:33;2.17;;;1.40;;
26908;SDS011;14477;51.038;4.588;2022-07-29T13:28:59;1.77;;;1.40;;
26908;SDS011;14477;51.038;4.588;2022-07-29T13:31:25;2.45;;;1.40;;
26908;SDS011;14477;51.038;4.588;2022-07-29T13:33:51;2.28;;;1.73;;
26908;SDS011;14477;51.038;4.588;2022-07-29T13:36:17;2.15;;;1.55;;
26908;SDS011;14477;51.038;4.588;2022-07-29T13:38:43;1.73;;;1.50;;
26908;SDS011;14477;51.038;4.588;2022-07-29T13:41:08;1.73;;;1.40;;
26908;SDS011;14477;51.038;4.588;2022-07-29T13:43:34;2.67;;;1.55;;
26908;SDS011;14477;51.038;4.588;2022-07-29T13:46:00;2.40;;;1.70;;
26908;SDS011;14477;51.038;4.588;2022-07-29T13:48:26;2.75;;;1.40;;
26908;SDS011;14477;51.038;4.588;2022-07-29T13:50:52;2.50;;;1.70;;
26908;SDS011;14477;51.038;4.588;2022-07-29T13:53:17;2.50;;;1.60;;
26908;SDS011;14477;51.038;4.588;2022-07-29T13:55:43;2.13;;;1.67;;
26908;SDS011;14477;51.038;4.588;2022-07-29T13:58:09;3.00;;;1.43;;
26908;SDS011;14477;51.038;4.588;2022-07-29T14:00:34;2.40;;;1.70;;
26908;SDS011;14477;51.038;4.588;2022-07-29T14:03:00;2.53;;;1.60;;
26908;SDS011;14477;51.038;4.588;2022-07-29T14:05:27;2.15;;;1.48;;
26908;SDS011;14477;51.038;4.588;2022-07-29T14:07:53;2.20;;;1.70;;
26908;SDS011;14477;51.038;4.588;2022-07-29T14:10:19;2.28;;;1.55;;
26908;SDS011;14477;51.038;4.588;2022-07-29T14:12:44;3.63;;;1.60;;
26908;SDS011;14477;51.038;4.588;2022-07-29T14:15:10;1.60;;;1.50;;
26908;SDS011;14477;51.038;4.588;2022-07-29T14:17:36;3.23;;;1.60;;
26908;SDS011;14477;51.038;4.588;2022-07-29T14:20:02;1.90;;;1.50;;
26908;SDS011;14477;51.038;4.588;2022-07-29T14:22:29;2.00;;;1.50;;
26908;SDS011;14477;51.038;4.588;2022-07-29T14:24:54;2.38;;;1.50;;
26908;SDS011;14477;51.038;4.588;2022-07-29T14:27:20;1.97;;;1.40;;
26908;SDS011;14477;51.038;4.588;2022-07-29T14:29:46;1.60;;;1.37;;
26908;SDS011;14477;51.038;4.588;2022-07-29T14:32:11;1.95;;;1.20;;
26908;SDS011;14477;51.038;4.588;2022-07-29T14:34:40;2.53;;;1.30;;
26908;SDS011;14477;51.038;4.588;2022-07-29T14:37:06;1.90;;;1.50;;
26908;SDS011;14477;51.038;4.588;2022-07-29T14:39:32;2.70;;;1.20;;
26908;SDS011;14477;51.038;4.588;2022-07-29T14:41:58;2.58;;;1.63;;
26908;SDS011;14477;51.038;4.588;2022-07-29T14:44:23;1.60;;;1.30;;
26908;SDS011;14477;51.038;4.588;2022-07-29T14:46:54;2.40;;;1.40;;
26908;SDS011;14477;51.038;4.588;2022-07-29T14:49:19;1.52;;;1.42;;
26908;SDS011;14477;51.038;4.588;2022-07-29T14:51:45;1.60;;;1.37;;
26908;SDS011;14477;51.038;4.588;2022-07-29T14:54:10;1.70;;;1.40;;
26908;SDS011;14477;51.038;4.588;2022-07-29T14:56:36;2.80;;;1.40;;
26908;SDS011;14477;51.038;4.588;2022-07-29T14:59:02;1.57;;;1.40;;
26908;SDS011;14477;51.038;4.588;2022-07-29T15:01:28;1.80;;;1.20;;
26908;SDS011;14477;51.038;4.588;2022-07-29T15:03:54;3.10;;;1.40;;
26908;SDS011;14477;51.038;4.588;2022-07-29T15:06:20;1.97;;;1.40;;
26908;SDS011;14477;51.038;4.588;2022-07-29T15:08:46;1.73;;;1.40;;
26908;SDS011;14477;51.038;4.588;2022-07-29T15:11:11;1.50;;;1.30;;
26908;SDS011;14477;51.038;4.588;2022-07-29T15:13:37;2.00;;;1.38;;
26908;SDS011;14477;51.038;4.588;2022-07-29T15:16:04;2.03;;;1.20;;
26908;SDS011;14477;51.038;4.588;2022-07-29T15:18:30;1.85;;;1.40;;
26908;SDS011;14477;51.038;4.588;2022-07-29T15:20:56;1.97;;;1.57;;
26908;SDS011;14477;51.038;4.588;2022-07-29T15:23:21;1.50;;;1.30;;
26908;SDS011;14477;51.038;4.588;2022-07-29T15:25:47;1.45;;;1.30;;
26908;SDS011;14477;51.038;4.588;2022-07-29T15:28:13;1.20;;;1.10;;
26908;SDS011;14477;51.038;4.588;2022-07-29T15:30:38;2.23;;;1.40;;
26908;SDS011;14477;51.038;4.588;2022-07-29T15:33:08;1.67;;;1.50;;
26908;SDS011;14477;51.038;4.588;2022-07-29T15:35:34;2.30;;;1.20;;
26908;SDS011;14477;51.038;4.588;2022-07-29T15:38:00;3.20;;;1.20;;
26908;SDS011;14477;51.038;4.588;2022-07-29T15:40:27;1.83;;;1.40;;
26908;SDS011;14477;51.038;4.588;2022-07-29T15:42:53;2.15;;;1.15;;
26908;SDS011;14477;51.038;4.588;2022-07-29T15:45:19;2.28;;;1.40;;
26908;SDS011;14477;51.038;4.588;2022-07-29T15:47:45;1.43;;;1.20;;
26908;SDS011;14477;51.038;4.588;2022-07-29T15:50:11;1.77;;;1.50;;
26908;SDS011;14477;51.038;4.588;2022-07-29T15:52:44;2.10;;;1.40;;
26908;SDS011;14477;51.038;4.588;2022-07-29T15:55:11;2.23;;;1.40;;
26908;SDS011;14477;51.038;4.588;2022-07-29T15:57:37;3.10;;;1.48;;